createdAt,value
2018-11-13T00:00:07.301Z,942.13
2018-11-13T00:01:08.127Z,942.14
2018-11-13T00:02:08.729Z,942.08
2018-11-13T00:03:09.248Z,942.04
2018-11-13T00:04:10.045Z,942.02
2018-11-13T00:05:11.127Z,942.02
2018-11-13T00:06:11.922Z,941.96
2018-11-13T00:07:12.514Z,942
2018-11-13T00:08:14.033Z,941.99
2018-11-13T00:09:15.109Z,941.98
2018-11-13T00:10:15.905Z,942.01
2018-11-13T00:11:17.347Z,942.02
2018-11-13T00:12:18.428Z,942.02
2018-11-13T00:13:19.781Z,942.03
2018-11-13T00:14:20.143Z,942.02
2018-11-13T00:15:21.216Z,942.05
2018-11-13T00:16:22.301Z,942.05
2018-11-13T00:17:22.696Z,942.06
2018-11-13T00:18:23.604Z,942.07
2018-11-13T00:19:24.234Z,942.03
2018-11-13T00:20:25.031Z,942.02
2018-11-13T00:21:25.829Z,942.06
2018-11-13T00:22:27.181Z,942.03
2018-11-13T00:23:27.978Z,942.04
2018-11-13T00:24:28.773Z,942
2018-11-13T00:25:29.571Z,942.04
2018-11-13T00:26:29.929Z,942.03
2018-11-13T00:27:31.179Z,942.05
2018-11-13T00:28:32.234Z,942.03
2018-11-13T00:29:32.960Z,941.99
2018-11-13T00:30:34.394Z,942
2018-11-13T00:31:34.749Z,941.99
2018-11-13T00:32:35.551Z,942
2018-11-13T00:33:36.351Z,942
2018-11-13T00:34:37.158Z,941.98
2018-11-13T00:35:37.525Z,941.95
2018-11-13T00:36:38.609Z,941.97
2018-11-13T00:37:39.731Z,941.96
2018-11-13T00:38:40.085Z,941.97
2018-11-13T00:39:40.884Z,941.95
2018-11-13T00:40:41.954Z,941.91
2018-11-13T00:41:42.584Z,941.95
2018-11-13T00:42:43.495Z,941.91
2018-11-13T00:43:43.854Z,941.91
2018-11-13T00:44:44.203Z,941.92
2018-11-13T00:45:45.346Z,941.89
2018-11-13T00:46:45.754Z,941.87
2018-11-13T00:47:46.321Z,941.88
2018-11-13T00:48:47.543Z,941.91
2018-11-13T00:49:48.901Z,941.9
2018-11-13T00:50:49.981Z,941.88
2018-11-13T00:51:50.499Z,941.87
2018-11-13T00:52:51.689Z,941.84
2018-11-13T00:53:52.766Z,941.87
2018-11-13T00:54:53.586Z,941.85
2018-11-13T00:55:54.378Z,941.84
2018-11-13T00:56:55.178Z,941.8
2018-11-13T00:57:56.359Z,941.85
2018-11-13T00:58:56.720Z,941.81
2018-11-13T00:59:58.070Z,941.8
2018-11-13T01:00:59.452Z,941.81
2018-11-13T01:02:00.395Z,941.79
2018-11-13T01:03:01.626Z,941.8
2018-11-13T01:04:02.431Z,941.81
2018-11-13T01:05:03.211Z,941.8
2018-11-13T01:06:04.393Z,941.82
2018-11-13T01:07:04.920Z,941.79
2018-11-13T01:08:05.776Z,941.81
2018-11-13T01:09:06.574Z,941.81
2018-11-13T01:10:07.374Z,941.81
2018-11-13T01:11:08.729Z,941.79
2018-11-13T01:12:09.527Z,941.77
2018-11-13T01:13:10.884Z,941.78
2018-11-13T01:14:11.956Z,941.78
2018-11-13T01:15:12.311Z,941.74
2018-11-13T01:16:12.679Z,941.75
2018-11-13T01:17:13.935Z,941.71
2018-11-13T01:18:14.770Z,941.75
2018-11-13T01:19:15.845Z,941.77
2018-11-13T01:20:16.646Z,941.82
2018-11-13T01:21:17.998Z,941.79
2018-11-13T01:22:19.104Z,941.81
2018-11-13T01:23:19.575Z,941.81
2018-11-13T01:24:20.079Z,941.81
2018-11-13T01:25:20.437Z,941.8
2018-11-13T01:26:20.793Z,941.79
2018-11-13T01:27:22.034Z,941.7
2018-11-13T01:28:22.610Z,941.74
2018-11-13T01:29:23.685Z,941.75
2018-11-13T01:30:25.044Z,941.78
2018-11-13T01:31:26.115Z,941.79
2018-11-13T01:32:26.748Z,941.8
2018-11-13T01:33:27.101Z,941.8
2018-11-13T01:34:28.626Z,941.78
2018-11-13T01:35:29.534Z,941.77
2018-11-13T01:36:30.333Z,941.73
2018-11-13T01:37:30.964Z,941.71
2018-11-13T01:38:31.533Z,941.69
2018-11-13T01:39:32.714Z,941.69
2018-11-13T01:40:33.117Z,941.67
2018-11-13T01:41:34.197Z,941.7
2018-11-13T01:42:34.808Z,941.63
2018-11-13T01:43:35.882Z,941.65
2018-11-13T01:44:36.683Z,941.66
2018-11-13T01:45:37.035Z,941.67
2018-11-13T01:46:37.827Z,941.67
2018-11-13T01:47:38.623Z,941.71
2018-11-13T01:48:39.467Z,941.68
2018-11-13T01:49:41.619Z,941.67
2018-11-13T01:50:41.601Z,941.68
2018-11-13T01:51:42.842Z,941.76
2018-11-13T01:52:43.645Z,941.78
2018-11-13T01:53:44.730Z,941.75
2018-11-13T01:54:45.365Z,941.81
2018-11-13T01:55:46.439Z,941.8
2018-11-13T01:56:47.234Z,941.82
2018-11-13T01:57:48.047Z,941.85
2018-11-13T01:58:48.914Z,941.86
2018-11-13T01:59:49.547Z,941.86
2018-11-13T02:00:50.346Z,941.85
2018-11-13T02:01:51.586Z,941.84
2018-11-13T02:02:52.104Z,941.83
2018-11-13T02:03:52.622Z,941.84
2018-11-13T02:04:53.864Z,941.82
2018-11-13T02:05:54.218Z,941.81
2018-11-13T02:06:55.011Z,941.82
2018-11-13T02:07:55.920Z,941.81
2018-11-13T02:08:56.766Z,941.81
2018-11-13T02:09:57.398Z,941.83
2018-11-13T02:10:58.199Z,941.76
2018-11-13T02:11:58.568Z,941.78
2018-11-13T02:13:00.075Z,941.78
2018-11-13T02:14:01.153Z,941.72
2018-11-13T02:15:02.234Z,941.7
2018-11-13T02:16:03.028Z,941.69
2018-11-13T02:17:03.546Z,941.72
2018-11-13T02:18:04.622Z,941.7
2018-11-13T02:19:05.019Z,941.7
2018-11-13T02:20:05.536Z,941.68
2018-11-13T02:21:06.335Z,941.65
2018-11-13T02:22:06.858Z,941.66
2018-11-13T02:23:07.381Z,941.67
2018-11-13T02:24:08.284Z,941.7
2018-11-13T02:25:09.081Z,941.7
2018-11-13T02:26:09.608Z,941.67
2018-11-13T02:27:10.129Z,941.67
2018-11-13T02:28:10.757Z,941.67
2018-11-13T02:29:11.347Z,941.65
2018-11-13T02:30:12.145Z,941.61
2018-11-13T02:31:13.364Z,941.58
2018-11-13T02:32:14.716Z,941.61
2018-11-13T02:33:15.347Z,941.58
2018-11-13T02:34:15.978Z,941.55
2018-11-13T02:35:16.888Z,941.51
2018-11-13T02:36:17.445Z,941.49
2018-11-13T02:37:18.292Z,941.47
2018-11-13T02:38:18.811Z,941.46
2018-11-13T02:39:19.492Z,941.43
2018-11-13T02:40:20.012Z,941.45
2018-11-13T02:41:20.368Z,941.47
2018-11-13T02:42:21.723Z,941.48
2018-11-13T02:43:22.801Z,941.44
2018-11-13T02:44:23.317Z,941.42
2018-11-13T02:45:24.452Z,941.41
2018-11-13T02:46:25.250Z,941.43
2018-11-13T02:47:26.324Z,941.42
2018-11-13T02:48:26.973Z,941.45
2018-11-13T02:49:27.665Z,941.42
2018-11-13T02:50:28.725Z,941.43
2018-11-13T02:51:29.815Z,941.41
2018-11-13T02:52:30.463Z,941.35
2018-11-13T02:53:31.541Z,941.34
2018-11-13T02:54:32.061Z,941.35
2018-11-13T02:55:33.410Z,941.36
2018-11-13T02:56:34.212Z,941.34
2018-11-13T02:57:35.024Z,941.35
2018-11-13T02:58:36.379Z,941.33
2018-11-13T02:59:36.946Z,941.34
2018-11-13T03:00:38.040Z,941.36
2018-11-13T03:01:39.114Z,941.38
2018-11-13T03:02:40.476Z,941.38
2018-11-13T03:03:41.118Z,941.35
2018-11-13T03:04:41.915Z,941.42
2018-11-13T03:05:42.985Z,941.44
2018-11-13T03:06:44.065Z,941.46
2018-11-13T03:07:44.729Z,941.48
2018-11-13T03:08:45.812Z,941.47
2018-11-13T03:09:46.219Z,941.47
2018-11-13T03:10:47.015Z,941.48
2018-11-13T03:11:48.105Z,941.46
2018-11-13T03:12:49.462Z,941.49
2018-11-13T03:13:50.575Z,941.45
2018-11-13T03:14:50.882Z,941.46
2018-11-13T03:15:52.236Z,941.39
2018-11-13T03:16:52.867Z,941.41
2018-11-13T03:17:53.685Z,941.38
2018-11-13T03:18:54.204Z,941.39
2018-11-13T03:19:55.609Z,941.41
2018-11-13T03:20:56.407Z,941.43
2018-11-13T03:21:56.761Z,941.4
2018-11-13T03:22:57.286Z,941.4
2018-11-13T03:23:58.365Z,941.45
2018-11-13T03:24:58.759Z,941.43
2018-11-13T03:25:59.396Z,941.42
2018-11-13T03:26:59.745Z,941.37
2018-11-13T03:28:00.835Z,941.41
2018-11-13T03:29:01.920Z,941.4
2018-11-13T03:30:02.878Z,941.4
2018-11-13T03:31:03.747Z,941.43
2018-11-13T03:32:04.761Z,941.39
2018-11-13T03:33:06.243Z,941.38
2018-11-13T03:34:06.874Z,941.39
2018-11-13T03:35:07.948Z,941.39
2018-11-13T03:36:08.298Z,941.4
2018-11-13T03:37:09.388Z,941.35
2018-11-13T03:38:10.752Z,941.4
2018-11-13T03:39:11.377Z,941.4
2018-11-13T03:40:12.357Z,941.37
2018-11-13T03:41:12.724Z,941.4
2018-11-13T03:42:13.803Z,941.38
2018-11-13T03:43:14.595Z,941.39
2018-11-13T03:44:14.955Z,941.36
2018-11-13T03:45:15.754Z,941.39
2018-11-13T03:46:16.554Z,941.37
2018-11-13T03:47:17.349Z,941.38
2018-11-13T03:48:18.425Z,941.39
2018-11-13T03:49:19.227Z,941.42
2018-11-13T03:50:19.969Z,941.41
2018-11-13T03:51:20.887Z,941.44
2018-11-13T03:52:22.245Z,941.43
2018-11-13T03:53:22.625Z,941.44
2018-11-13T03:54:23.144Z,941.47
2018-11-13T03:55:24.059Z,941.47
2018-11-13T03:56:24.692Z,941.49
2018-11-13T03:57:26.048Z,941.49
2018-11-13T03:58:26.401Z,941.5
2018-11-13T03:59:27.041Z,941.5
2018-11-13T04:00:27.471Z,941.53
2018-11-13T04:01:28.111Z,941.52
2018-11-13T04:02:28.464Z,941.54
2018-11-13T04:03:29.273Z,941.56
2018-11-13T04:04:30.074Z,941.6
2018-11-13T04:05:31.162Z,941.53
2018-11-13T04:06:31.789Z,941.57
2018-11-13T04:07:32.592Z,941.63
2018-11-13T04:08:33.231Z,941.66
2018-11-13T04:09:34.579Z,941.68
2018-11-13T04:10:35.735Z,941.73
2018-11-13T04:11:36.094Z,941.7
2018-11-13T04:12:37.278Z,941.71
2018-11-13T04:13:38.375Z,941.72
2018-11-13T04:14:39.006Z,941.7
2018-11-13T04:15:40.078Z,941.75
2018-11-13T04:16:40.989Z,941.76
2018-11-13T04:17:41.623Z,941.79
2018-11-13T04:18:42.418Z,941.81
2018-11-13T04:19:42.843Z,941.82
2018-11-13T04:20:43.558Z,941.93
2018-11-13T04:21:44.646Z,941.94
2018-11-13T04:22:57.407Z,941.96
2018-11-13T04:23:58.530Z,942.02
2018-11-13T04:24:59.050Z,942.06
2018-11-13T04:25:59.699Z,942.03
2018-11-13T04:27:00.497Z,942.04
2018-11-13T04:28:01.302Z,942.07
2018-11-13T04:29:01.653Z,942.04
2018-11-13T04:30:02.741Z,942.07
2018-11-13T04:31:03.817Z,942.06
2018-11-13T04:32:04.175Z,942.08
2018-11-13T04:33:04.883Z,942.07
2018-11-13T04:34:05.463Z,942.12
2018-11-13T04:35:06.263Z,942.13
2018-11-13T04:36:07.471Z,942.06
2018-11-13T04:37:08.395Z,942.1
2018-11-13T04:38:08.750Z,942.11
2018-11-13T04:39:09.825Z,942.13
2018-11-13T04:40:10.620Z,942.19
2018-11-13T04:41:11.696Z,942.22
2018-11-13T04:42:12.214Z,942.28
2018-11-13T04:43:12.850Z,942.26
2018-11-13T04:44:13.700Z,942.31
2018-11-13T04:45:14.776Z,942.3
2018-11-13T04:46:15.571Z,942.29
2018-11-13T04:47:15.930Z,942.31
2018-11-13T04:48:16.282Z,942.33
2018-11-13T04:49:17.356Z,942.33
2018-11-13T04:50:18.155Z,942.37
2018-11-13T04:51:18.735Z,942.36
2018-11-13T04:52:19.586Z,942.38
2018-11-13T04:53:20.386Z,942.41
2018-11-13T04:54:21.375Z,942.46
2018-11-13T04:55:22.456Z,942.49
2018-11-13T04:56:23.538Z,942.51
2018-11-13T04:57:24.337Z,942.5
2018-11-13T04:58:25.134Z,942.56
2018-11-13T04:59:26.209Z,942.57
2018-11-13T05:00:26.837Z,942.63
2018-11-13T05:01:27.634Z,942.64
2018-11-13T05:02:27.989Z,942.62
2018-11-13T05:03:29.511Z,942.68
2018-11-13T05:04:30.077Z,942.69
2018-11-13T05:05:31.154Z,942.72
2018-11-13T05:06:31.509Z,942.72
2018-11-13T05:07:32.748Z,942.81
2018-11-13T05:08:33.266Z,942.81
2018-11-13T05:09:33.616Z,942.83
2018-11-13T05:10:34.135Z,942.89
2018-11-13T05:11:34.656Z,942.95
2018-11-13T05:12:35.454Z,942.97
2018-11-13T05:13:36.253Z,943.01
2018-11-13T05:14:36.658Z,942.97
2018-11-13T05:15:38.044Z,942.95
2018-11-13T05:16:38.688Z,942.97
2018-11-13T05:17:39.160Z,942.97
2018-11-13T05:18:39.802Z,942.96
2018-11-13T05:19:41.159Z,943
2018-11-13T05:20:41.523Z,943.05
2018-11-13T05:21:42.167Z,943
2018-11-13T05:22:42.799Z,942.97
2018-11-13T05:23:43.318Z,943.07
2018-11-13T05:24:43.900Z,943.09
2018-11-13T05:25:44.268Z,943.11
2018-11-13T05:26:45.056Z,943.12
2018-11-13T05:27:46.141Z,943.12
2018-11-13T05:28:46.491Z,943.1
2018-11-13T05:29:47.010Z,943.12
2018-11-13T05:30:48.359Z,943.15
2018-11-13T05:31:49.155Z,943.1
2018-11-13T05:32:50.511Z,943.13
2018-11-13T05:33:51.319Z,943.13
2018-11-13T05:34:51.633Z,943.15
2018-11-13T05:35:51.999Z,943.19
2018-11-13T05:36:52.353Z,943.26
2018-11-13T05:37:53.148Z,943.25
2018-11-13T05:38:54.502Z,943.16
2018-11-13T05:39:55.298Z,943.23
2018-11-13T05:40:56.373Z,943.3
2018-11-13T05:41:56.892Z,943.29
2018-11-13T05:42:57.965Z,943.32
2018-11-13T05:43:59.316Z,943.36
2018-11-13T05:44:59.714Z,943.38
2018-11-13T05:46:00.352Z,943.4
2018-11-13T05:47:01.432Z,943.42
2018-11-13T05:48:02.010Z,943.45
2018-11-13T05:49:02.527Z,943.46
2018-11-13T05:50:03.322Z,943.49
2018-11-13T05:51:03.950Z,943.51
2018-11-13T05:52:04.469Z,943.49
2018-11-13T05:53:05.386Z,943.49
2018-11-13T05:54:06.461Z,943.54
2018-11-13T05:55:07.607Z,943.53
2018-11-13T05:56:07.963Z,943.54
2018-11-13T05:57:08.483Z,943.54
2018-11-13T05:58:09.561Z,943.53
2018-11-13T05:59:10.359Z,943.54
2018-11-13T06:00:10.890Z,943.57
2018-11-13T06:01:12.250Z,943.61
2018-11-13T06:02:13.175Z,943.7
2018-11-13T06:03:14.251Z,943.62
2018-11-13T06:04:14.886Z,943.65
2018-11-13T06:05:15.179Z,943.69
2018-11-13T06:06:16.030Z,943.75
2018-11-13T06:07:16.833Z,943.71
2018-11-13T06:08:18.355Z,943.7
2018-11-13T06:09:18.910Z,943.75
2018-11-13T06:10:19.986Z,943.78
2018-11-13T06:11:21.340Z,943.74
2018-11-13T06:12:22.415Z,943.79
2018-11-13T06:13:23.499Z,943.8
2018-11-13T06:14:24.024Z,943.84
2018-11-13T06:15:24.863Z,943.88
2018-11-13T06:16:26.106Z,943.9
2018-11-13T06:17:26.626Z,943.92
2018-11-13T06:18:27.628Z,943.93
2018-11-13T06:19:28.914Z,943.96
2018-11-13T06:20:30.434Z,944.02
2018-11-13T06:21:31.519Z,944.01
2018-11-13T06:22:32.610Z,943.99
2018-11-13T06:23:33.689Z,944.06
2018-11-13T06:24:34.046Z,944.08
2018-11-13T06:25:34.936Z,944.09
2018-11-13T06:26:35.301Z,944.08
2018-11-13T06:27:35.826Z,944.15
2018-11-13T06:28:36.492Z,944.18
2018-11-13T06:29:37.321Z,944.21
2018-11-13T06:30:38.431Z,944.24
2018-11-13T06:31:39.235Z,944.21
2018-11-13T06:32:39.869Z,944.24
2018-11-13T06:33:40.947Z,944.28
2018-11-13T06:34:42.032Z,944.25
2018-11-13T06:35:43.176Z,944.3
2018-11-13T06:36:44.100Z,944.3
2018-11-13T06:37:44.747Z,944.36
2018-11-13T06:38:45.580Z,944.38
2018-11-13T06:39:46.895Z,944.42
2018-11-13T06:40:48.254Z,944.45
2018-11-13T06:41:49.330Z,944.42
2018-11-13T06:42:50.132Z,944.4
2018-11-13T06:43:50.932Z,944.48
2018-11-13T06:44:52.014Z,944.37
2018-11-13T06:45:52.894Z,944.3
2018-11-13T06:46:53.696Z,944.5
2018-11-13T06:47:54.494Z,944.54
2018-11-13T06:48:55.488Z,944.45
2018-11-13T06:49:55.436Z,944.42
2018-11-13T06:50:55.823Z,944.62
2018-11-13T06:51:56.903Z,944.5
2018-11-13T06:52:57.602Z,944.55
2018-11-13T06:53:58.685Z,944.53
2018-11-13T06:54:59.602Z,944.66
2018-11-13T06:56:00.316Z,944.68
2018-11-13T06:57:01.395Z,944.57
2018-11-13T06:58:02.584Z,944.65
2018-11-13T06:59:03.233Z,944.72
2018-11-13T07:00:03.614Z,944.76
2018-11-13T07:01:04.138Z,944.72
2018-11-13T07:02:04.985Z,944.64
2018-11-13T07:03:06.072Z,944.76
2018-11-13T07:04:06.622Z,944.78
2018-11-13T07:05:07.934Z,944.8
2018-11-13T07:06:08.812Z,944.88
2018-11-13T07:07:09.728Z,944.88
2018-11-13T07:08:10.808Z,944.97
2018-11-13T07:09:11.615Z,945.01
2018-11-13T07:10:12.709Z,944.97
2018-11-13T07:11:13.616Z,945
2018-11-13T07:12:14.660Z,944.99
2018-11-13T07:13:15.881Z,945.02
2018-11-13T07:14:16.414Z,945.02
2018-11-13T07:15:17.521Z,945.04
2018-11-13T07:16:18.581Z,945.11
2018-11-13T07:17:18.947Z,945.08
2018-11-13T07:18:19.576Z,945.06
2018-11-13T07:19:20.583Z,945.18
2018-11-13T07:20:21.045Z,945.19
2018-11-13T07:21:21.666Z,945.1
2018-11-13T07:22:22.095Z,945.14
2018-11-13T07:23:23.177Z,945.18
2018-11-13T07:24:24.456Z,945.15
2018-11-13T07:25:26.235Z,945.12
2018-11-13T07:26:27.095Z,945.21
2018-11-13T07:27:28.259Z,945.24
2018-11-13T07:28:28.957Z,945.18
2018-11-13T07:29:29.767Z,945.15
2018-11-13T07:30:30.408Z,945.21
2018-11-13T07:31:31.496Z,945.25
2018-11-13T07:32:32.301Z,945.23
2018-11-13T07:33:33.725Z,945.2
2018-11-13T07:34:34.236Z,945.29
2018-11-13T07:35:35.405Z,945.31
2018-11-13T07:36:35.645Z,945.28
2018-11-13T07:37:36.451Z,945.32
2018-11-13T07:38:38.278Z,945.37
2018-11-13T07:39:39.666Z,945.34
2018-11-13T07:40:40.187Z,945.29
2018-11-13T07:41:40.989Z,945.32
2018-11-13T07:42:42.070Z,945.34
2018-11-13T07:43:42.719Z,945.42
2018-11-13T07:44:43.519Z,945.38
2018-11-13T07:45:44.770Z,945.34
2018-11-13T07:46:46.000Z,945.36
2018-11-13T07:47:47.013Z,945.46
2018-11-13T07:48:47.540Z,945.43
2018-11-13T07:49:48.345Z,945.49
2018-11-13T07:50:49.153Z,945.5
2018-11-13T07:51:50.239Z,945.57
2018-11-13T07:52:51.321Z,945.59
2018-11-13T07:53:52.421Z,945.55
2018-11-13T07:54:52.638Z,945.58
2018-11-13T07:55:53.171Z,945.58
2018-11-13T07:56:53.472Z,945.56
2018-11-13T07:57:54.280Z,945.57
2018-11-13T07:58:55.528Z,945.58
2018-11-13T07:59:56.338Z,945.6
2018-11-13T08:00:56.702Z,945.59
2018-11-13T08:01:57.784Z,945.61
2018-11-13T08:02:58.312Z,945.58
2018-11-13T08:04:00.399Z,945.61
2018-11-13T08:05:01.176Z,945.65
2018-11-13T08:05:12.859Z,945.6
2018-11-13T08:06:13.873Z,945.68
2018-11-13T08:07:14.936Z,945.72
2018-11-13T08:08:15.874Z,945.73
2018-11-13T08:09:17.008Z,945.72
2018-11-13T08:10:18.095Z,945.71
2018-11-13T08:11:18.457Z,945.74
2018-11-13T08:12:19.628Z,945.76
2018-11-13T08:13:21.078Z,945.75
2018-11-13T08:14:21.686Z,945.74
2018-11-13T08:15:22.491Z,945.83
2018-11-13T08:16:24.012Z,945.8
2018-11-13T08:17:24.390Z,945.81
2018-11-13T08:18:26.010Z,945.88
2018-11-13T08:19:26.697Z,945.94
2018-11-13T08:20:27.067Z,945.96
2018-11-13T08:21:28.320Z,945.93
2018-11-13T08:22:28.865Z,945.91
2018-11-13T08:23:29.962Z,945.97
2018-11-13T08:24:31.086Z,945.92
2018-11-13T08:25:32.075Z,945.92
2018-11-13T08:26:32.593Z,945.98
2018-11-13T08:27:33.157Z,945.95
2018-11-13T08:28:34.120Z,945.96
2018-11-13T08:29:35.785Z,946.03
2018-11-13T08:30:36.964Z,946.03
2018-11-13T08:31:38.052Z,946.03
2018-11-13T08:32:38.699Z,946.04
2018-11-13T08:33:39.348Z,946.07
2018-11-13T08:34:40.549Z,946.04
2018-11-13T08:35:41.554Z,946.02
2018-11-13T08:36:41.909Z,945.98
2018-11-13T08:37:42.433Z,945.98
2018-11-13T08:38:42.850Z,946.02
2018-11-13T08:39:44.208Z,946.02
2018-11-13T08:40:45.020Z,946.07
2018-11-13T08:41:45.552Z,946.13
2018-11-13T08:42:46.466Z,946.12
2018-11-13T08:43:47.029Z,946.06
2018-11-13T08:44:47.732Z,946.08
2018-11-13T08:45:48.536Z,946.17
2018-11-13T08:46:49.113Z,946.2
2018-11-13T08:47:50.473Z,946.22
2018-11-13T08:48:50.998Z,946.16
2018-11-13T08:49:51.802Z,946.11
2018-11-13T08:50:52.626Z,946.13
2018-11-13T08:51:53.319Z,946.1
2018-11-13T08:52:54.127Z,946.13
2018-11-13T08:53:54.449Z,946.09
2018-11-13T08:54:55.535Z,946.1
2018-11-13T08:55:56.342Z,946.19
2018-11-13T08:56:57.594Z,946.17
2018-11-13T08:57:58.786Z,946.16
2018-11-13T08:59:00.120Z,946.12
2018-11-13T09:00:00.741Z,946.14
2018-11-13T09:01:01.112Z,946.1
2018-11-13T09:02:02.203Z,946.13
2018-11-13T09:03:03.006Z,946.14
2018-11-13T09:04:04.099Z,946.12
2018-11-13T09:05:05.181Z,946.14
2018-11-13T09:06:05.482Z,946.13
2018-11-13T09:07:05.853Z,946.18
2018-11-13T09:08:06.390Z,946.15
2018-11-13T09:09:06.917Z,946.14
2018-11-13T09:10:07.999Z,946.24
2018-11-13T09:11:08.400Z,946.29
2018-11-13T09:12:09.773Z,946.32
2018-11-13T09:13:10.653Z,946.32
2018-11-13T09:14:11.178Z,946.3
2018-11-13T09:15:12.304Z,946.29
2018-11-13T09:16:12.945Z,946.28
2018-11-13T09:17:14.081Z,946.34
2018-11-13T09:18:14.388Z,946.38
2018-11-13T09:19:16.129Z,946.36
2018-11-13T09:20:16.467Z,946.32
2018-11-13T09:21:17.883Z,946.36
2018-11-13T09:22:18.975Z,946.39
2018-11-13T09:23:19.511Z,946.38
2018-11-13T09:24:20.705Z,946.4
2018-11-13T09:25:21.791Z,946.45
2018-11-13T09:26:22.605Z,946.41
2018-11-13T09:27:23.661Z,946.4
2018-11-13T09:28:24.469Z,946.45
2018-11-13T09:29:25.297Z,946.47
2018-11-13T09:30:27.124Z,946.39
2018-11-13T09:31:28.276Z,946.42
2018-11-13T09:32:28.996Z,946.41
2018-11-13T09:33:30.193Z,946.42
2018-11-13T09:34:31.133Z,946.44
2018-11-13T09:35:31.559Z,946.44
2018-11-13T09:36:32.100Z,946.39
2018-11-13T09:37:33.399Z,946.41
2018-11-13T09:38:34.497Z,946.42
2018-11-13T09:39:35.033Z,946.46
2018-11-13T09:40:35.396Z,946.48
2018-11-13T09:41:36.488Z,946.49
2018-11-13T09:42:37.302Z,946.5
2018-11-13T09:43:38.388Z,946.5
2018-11-13T09:44:38.966Z,946.55
2018-11-13T09:45:40.200Z,946.55
2018-11-13T09:46:41.062Z,946.44
2018-11-13T09:47:41.834Z,946.47
2018-11-13T09:48:42.530Z,946.49
2018-11-13T09:49:43.834Z,946.51
2018-11-13T09:50:44.898Z,946.51
2018-11-13T09:51:45.914Z,946.58
2018-11-13T09:52:46.728Z,946.6
2018-11-13T09:53:48.452Z,946.55
2018-11-13T09:54:48.595Z,946.52
2018-11-13T09:55:49.295Z,946.54
2018-11-13T09:56:50.624Z,946.55
2018-11-13T09:57:51.638Z,946.54
2018-11-13T09:58:52.353Z,946.54
2018-11-13T09:59:53.176Z,946.62
2018-11-13T10:00:55.107Z,946.57
2018-11-13T10:01:56.254Z,946.56
2018-11-13T10:02:08.001Z,946.54
2018-11-13T10:02:20.480Z,946.58
2018-11-13T10:02:31.603Z,946.58
2018-11-13T10:02:44.265Z,946.59
2018-11-13T10:02:56.492Z,946.58
2018-11-13T10:03:08.833Z,946.58
2018-11-13T10:03:21.020Z,946.6
2018-11-13T10:03:32.740Z,946.6
2018-11-13T10:04:33.578Z,946.58
2018-11-13T10:05:33.837Z,946.59
2018-11-13T10:06:34.888Z,946.59
2018-11-13T10:07:35.783Z,946.57
2018-11-13T10:08:36.876Z,946.57
2018-11-13T10:09:37.799Z,946.65
2018-11-13T10:10:38.444Z,946.59
2018-11-13T10:11:38.838Z,946.67
2018-11-13T10:12:39.996Z,946.68
2018-11-13T10:13:41.056Z,946.64
2018-11-13T10:14:41.366Z,946.67
2018-11-13T10:15:42.100Z,946.54
2018-11-13T10:16:43.334Z,946.56
2018-11-13T10:17:44.488Z,946.6
2018-11-13T10:18:45.132Z,946.62
2018-11-13T10:19:46.225Z,946.58
2018-11-13T10:20:47.207Z,946.69
2018-11-13T10:21:48.310Z,946.64
2018-11-13T10:22:49.436Z,946.66
2018-11-13T10:23:50.820Z,946.64
2018-11-13T10:24:51.425Z,946.57
2018-11-13T10:25:51.972Z,946.6
2018-11-13T10:26:52.784Z,946.6
2018-11-13T10:27:53.606Z,946.55
2018-11-13T10:28:54.545Z,946.51
2018-11-13T10:29:55.335Z,946.54
2018-11-13T10:30:55.972Z,946.58
2018-11-13T10:31:56.590Z,946.53
2018-11-13T10:32:57.403Z,946.53
2018-11-13T10:33:58.224Z,946.5
2018-11-13T10:34:59.088Z,946.52
2018-11-13T10:36:00.173Z,946.58
2018-11-13T10:37:01.260Z,946.54
2018-11-13T10:38:02.239Z,946.52
2018-11-13T10:39:02.729Z,946.62
2018-11-13T10:40:04.379Z,946.63
2018-11-13T10:41:05.000Z,946.6
2018-11-13T10:42:06.261Z,946.6
2018-11-13T10:43:07.420Z,946.55
2018-11-13T10:44:08.084Z,946.56
2018-11-13T10:45:09.229Z,946.63
2018-11-13T10:46:10.324Z,946.56
2018-11-13T10:47:10.972Z,946.68
2018-11-13T10:48:11.382Z,946.69
2018-11-13T10:49:12.487Z,946.68
2018-11-13T10:50:13.680Z,946.66
2018-11-13T10:51:14.634Z,946.73
2018-11-13T10:52:15.751Z,946.83
2018-11-13T10:53:17.006Z,946.82
2018-11-13T10:54:18.256Z,946.82
2018-11-13T10:55:19.580Z,946.81
2018-11-13T10:56:20.851Z,946.76
2018-11-13T10:57:22.162Z,946.89
2018-11-13T10:58:23.127Z,946.91
2018-11-13T10:59:25.734Z,947.02
2018-11-13T11:00:26.767Z,946.99
2018-11-13T11:01:27.738Z,947.01
2018-11-13T11:02:28.752Z,947.09
2018-11-13T11:03:29.738Z,947.1
2018-11-13T11:04:31.120Z,947.1
2018-11-13T11:05:31.037Z,947.21
2018-11-13T11:06:31.906Z,947.23
2018-11-13T11:07:32.540Z,947.28
2018-11-13T11:08:33.625Z,947.27
2018-11-13T11:09:34.773Z,947.3
2018-11-13T11:10:35.920Z,947.33
2018-11-13T11:11:36.702Z,947.29
2018-11-13T11:12:37.518Z,947.33
2018-11-13T11:13:39.295Z,947.3
2018-11-13T11:14:40.406Z,947.29
2018-11-13T11:15:41.271Z,947.32
2018-11-13T11:16:42.998Z,947.32
2018-11-13T11:17:43.948Z,947.33
2018-11-13T11:18:45.142Z,947.33
2018-11-13T11:19:45.344Z,947.39
2018-11-13T11:20:46.598Z,947.39
2018-11-13T11:21:47.846Z,947.44
2018-11-13T11:22:49.976Z,947.48
2018-11-13T11:23:50.443Z,947.53
2018-11-13T11:24:50.944Z,947.62
2018-11-13T11:25:52.224Z,947.68
2018-11-13T11:26:52.741Z,947.65
2018-11-13T11:27:53.879Z,947.62
2018-11-13T11:28:54.952Z,947.65
2018-11-13T11:29:55.774Z,947.7
2018-11-13T11:30:56.667Z,947.68
2018-11-13T11:31:56.932Z,947.68
2018-11-13T11:32:57.457Z,947.7
2018-11-13T11:33:58.273Z,947.7
2018-11-13T11:34:59.108Z,947.72
2018-11-13T11:35:59.974Z,947.77
2018-11-13T11:37:00.666Z,947.69
2018-11-13T11:38:01.751Z,947.75
2018-11-13T11:39:03.531Z,947.74
2018-11-13T11:40:03.805Z,947.74
2018-11-13T11:41:04.974Z,947.81
2018-11-13T11:42:06.054Z,947.85
2018-11-13T11:43:07.139Z,947.86
2018-11-13T11:44:08.345Z,947.83
2018-11-13T11:45:09.483Z,947.85
2018-11-13T11:46:10.053Z,947.85
2018-11-13T11:47:10.852Z,947.92
2018-11-13T11:48:11.382Z,947.9
2018-11-13T11:49:12.191Z,947.93
2018-11-13T11:50:13.485Z,948.02
2018-11-13T11:51:14.527Z,948.07
2018-11-13T11:52:15.488Z,948.07
2018-11-13T11:53:17.041Z,948.1
2018-11-13T11:54:17.410Z,948.07
2018-11-13T11:55:17.849Z,948.08
2018-11-13T11:56:19.013Z,948.05
2018-11-13T11:57:20.093Z,948.16
2018-11-13T11:58:21.461Z,948.15
2018-11-13T11:59:22.274Z,948.15
2018-11-13T12:00:23.108Z,948.19
2018-11-13T12:01:24.322Z,948.21
2018-11-13T12:02:25.412Z,948.22
2018-11-13T12:03:26.937Z,948.24
2018-11-13T12:04:27.740Z,948.23
2018-11-13T12:05:28.306Z,948.26
2018-11-13T12:06:29.154Z,948.3
2018-11-13T12:07:30.512Z,948.38
2018-11-13T12:08:32.167Z,948.35
2018-11-13T12:09:33.116Z,948.36
2018-11-13T12:10:33.649Z,948.4
2018-11-13T12:11:34.581Z,948.39
2018-11-13T12:12:35.520Z,948.39
2018-11-13T12:13:36.276Z,948.46
2018-11-13T12:14:36.797Z,948.46
2018-11-13T12:15:37.955Z,948.46
2018-11-13T12:16:39.155Z,948.55
2018-11-13T12:17:39.956Z,948.52
2018-11-13T12:18:41.394Z,948.52
2018-11-13T12:19:42.317Z,948.56
2018-11-13T12:20:43.399Z,948.6
2018-11-13T12:21:43.762Z,948.61
2018-11-13T12:22:44.150Z,948.63
2018-11-13T12:23:45.233Z,948.64
2018-11-13T12:24:46.035Z,948.63
2018-11-13T12:25:47.125Z,948.66
2018-11-13T12:26:48.488Z,948.67
2018-11-13T12:27:49.018Z,948.6
2018-11-13T12:28:50.154Z,948.71
2018-11-13T12:29:50.516Z,948.62
2018-11-13T12:30:51.874Z,948.72
2018-11-13T12:31:52.680Z,948.69
2018-11-13T12:32:53.210Z,948.75
2018-11-13T12:33:54.283Z,948.75
2018-11-13T12:34:55.077Z,948.78